Decatur Airport
KDEC : now visible

Airfield :











YOU CAN JOIN US ON...

 
LOGIN :

Register | Disclaimer

   EN    FR    IT 

 









Legend :    VFR   Marginal VFR   IFR   Intensive IFR   Very Intensive IFR
Visi :
Ceiling :
>= 8 km
>= 3000ft
5 to 8 km
1000 to 3000 ft
1500m to 5 km
500 to 1000 ft
800 to 1500m
200 to 500 ft
< 800m
< 200 ft
Symbols :   Thunderstorms  Fog  Heavy snow  Heavy precipitations  Wind > 20 kt






- Airport Elevation : 682 ft
- IATA code : DEC


KDEC - Decatur

CURRENT METAR :
  • 201454Z 19014G27KT 10SM CLR 27/19 A2993 RMK AO2 PK WND 21027/1447 SLP128 T02720194 53000

EXPIRED METARs :
  • 201354Z 19011KT 10SM CLR 26/19 A2992 RMK AO2 SLP127 T02560194 $
  • 201254Z 17009KT 10SM CLR 23/19 A2992 RMK AO2 SLP125 T02330194 $
  • 201154Z 19007KT 10SM CLR 21/19 A2993 RMK AO2 SLP129 70026 T02110189 10211 20194 53001 $
  • 201054Z 18006KT 10SM CLR 21/18 A2993 RMK AO2 SLP127 T02060183 $

TAF KDEC
Valid from the 20 at 12:00 until the 21 at 12:00 UTC


201120Z 2012/2112 20009KT P6SM SCT070 SCT250
FM201500 22015G24KT P6SM VCSH SCT070 SCT250
FM210000 18007KT P6SM VCSH SCT070 BKN250
KZKC FIR / North America



MET'MAP, your aeronautical weather chart ! - Copyright ORBIFLY December 2007 - Disclaimer

ORBIFLY MET'MAP TEAM :

Programming & Development : Alexandra Zaïnal
Original concept : Baudouin d'Aumeries
Technical & hardware support : Manuel Goepfert
Assistance : Marc-Olivier Méhu




SOURCES & CREDITS :

   NOAA       Earth
Advisory